createdAt,value
2019-02-14T00:01:39.300Z,8.88
2019-02-14T00:04:07.566Z,7.90
2019-02-14T00:06:35.827Z,8.78
2019-02-14T00:09:04.853Z,8.93
2019-02-14T00:11:33.110Z,8.48
2019-02-14T00:14:01.383Z,8.68
2019-02-14T00:16:29.664Z,8.63
2019-02-14T00:18:57.913Z,8.38
2019-02-14T00:21:26.203Z,7.92
2019-02-14T00:23:54.704Z,7.87
2019-02-14T00:26:23.002Z,8.23
2019-02-14T00:28:51.260Z,8.00
2019-02-14T00:31:19.511Z,7.42
2019-02-14T00:33:47.786Z,7.60
2019-02-14T00:36:16.082Z,7.30
2019-02-14T00:38:44.334Z,8.50
2019-02-14T00:41:12.604Z,7.53
2019-02-14T00:43:40.886Z,6.95
2019-02-14T00:46:09.156Z,7.90
2019-02-14T00:48:37.408Z,8.13
2019-02-14T00:51:05.692Z,7.75
2019-02-14T00:53:33.940Z,7.30
2019-02-14T00:56:02.230Z,7.40
2019-02-14T00:58:30.483Z,7.03
2019-02-14T01:00:58.768Z,7.53
2019-02-14T01:03:27.026Z,7.22
2019-02-14T01:05:55.315Z,7.25
2019-02-14T01:08:23.574Z,7.55
2019-02-14T01:10:51.861Z,7.47
2019-02-14T01:13:20.493Z,7.15
2019-02-14T01:15:48.813Z,7.12
2019-02-14T01:18:17.110Z,7.25
2019-02-14T01:20:45.367Z,7.03
2019-02-14T01:23:13.637Z,7.40
2019-02-14T01:25:41.889Z,7.20
2019-02-14T01:28:10.174Z,6.83
2019-02-14T01:30:38.456Z,7.72
2019-02-14T01:33:06.708Z,6.92
2019-02-14T01:35:41.869Z,7.03
2019-02-14T01:38:04.977Z,7.37
2019-02-14T01:40:33.269Z,7.70
2019-02-14T01:43:01.578Z,7.17
2019-02-14T01:45:29.895Z,7.87
2019-02-14T01:47:58.149Z,7.83
2019-02-14T01:50:26.427Z,6.33
2019-02-14T01:52:54.684Z,7.55
2019-02-14T01:55:22.982Z,8.33
2019-02-14T01:57:51.265Z,7.42
2019-02-14T02:00:19.692Z,7.78
2019-02-14T02:02:47.986Z,7.55
2019-02-14T02:05:16.242Z,7.40
2019-02-14T02:07:44.571Z,7.50
2019-02-14T02:10:13.177Z,7.70
2019-02-14T02:12:41.444Z,7.22
2019-02-14T02:15:12.251Z,7.15
2019-02-14T02:17:40.507Z,7.50
2019-02-14T02:20:10.031Z,7.33
2019-02-14T02:22:38.288Z,6.85
2019-02-14T02:25:09.409Z,7.35
2019-02-14T02:27:37.686Z,7.42
2019-02-14T02:30:12.060Z,7.17
2019-02-14T02:32:40.329Z,7.78
2019-02-14T02:35:09.052Z,7.62
2019-02-14T02:37:37.327Z,7.95
2019-02-14T02:40:08.097Z,7.97
2019-02-14T02:42:36.370Z,8.33
2019-02-14T02:45:07.765Z,8.23
2019-02-14T02:47:36.059Z,9.03
2019-02-14T02:50:05.432Z,7.55
2019-02-14T02:52:33.691Z,7.72
2019-02-14T02:55:01.980Z,7.72
2019-02-14T02:57:30.266Z,8.03
2019-02-14T02:59:58.530Z,7.60
2019-02-14T03:02:26.787Z,7.45
2019-02-14T03:04:55.138Z,7.95
2019-02-14T03:07:23.474Z,8.10
2019-02-14T03:09:51.746Z,7.97
2019-02-14T03:12:20.044Z,8.58
2019-02-14T03:14:48.330Z,8.03
2019-02-14T03:17:16.601Z,8.03
2019-02-14T03:19:44.858Z,8.30
2019-02-14T03:22:13.108Z,8.05
2019-02-14T03:24:41.391Z,8.38
2019-02-14T03:27:09.648Z,8.10
2019-02-14T03:29:37.938Z,8.50
2019-02-14T03:32:06.188Z,8.15
2019-02-14T03:34:34.468Z,8.20
2019-02-14T03:37:02.721Z,8.53
2019-02-14T03:39:30.983Z,8.68
2019-02-14T03:41:59.267Z,9.20
2019-02-14T03:44:27.521Z,8.50
2019-02-14T03:46:55.773Z,8.28
2019-02-14T03:49:24.056Z,9.00
2019-02-14T03:51:52.321Z,8.58
2019-02-14T03:54:20.622Z,8.63
2019-02-14T03:56:48.903Z,9.38
2019-02-14T03:59:17.217Z,8.03
2019-02-14T04:01:45.476Z,9.08
2019-02-14T04:04:13.721Z,9.18
2019-02-14T04:06:41.993Z,9.40
2019-02-14T04:09:10.310Z,9.18
2019-02-14T04:11:38.564Z,9.48
2019-02-14T04:14:06.810Z,9.33
2019-02-14T04:16:35.100Z,8.38
2019-02-14T04:19:03.369Z,9.13
2019-02-14T04:21:31.660Z,8.65
2019-02-14T04:24:00.017Z,9.00
2019-02-14T04:26:28.276Z,10.43
2019-02-14T04:28:56.541Z,9.05
2019-02-14T04:31:24.828Z,9.28
2019-02-14T04:33:53.092Z,9.15
2019-02-14T04:36:21.383Z,9.48
2019-02-14T04:38:49.643Z,10.18
2019-02-14T04:41:17.897Z,9.18
2019-02-14T04:43:46.218Z,8.50
2019-02-14T04:46:14.476Z,9.93
2019-02-14T04:48:43.137Z,9.23
2019-02-14T04:51:11.492Z,12.88
2019-02-14T04:53:39.758Z,9.63
2019-02-14T04:56:08.055Z,13.38
2019-02-14T04:58:36.321Z,12.23
2019-02-14T05:01:04.584Z,16.97
2019-02-14T05:03:32.834Z,9.40
2019-02-14T05:06:01.645Z,9.60
2019-02-14T05:08:30.033Z,14.50
2019-02-14T05:10:58.322Z,11.75
2019-02-14T05:13:26.571Z,8.95
2019-02-14T05:15:54.892Z,9.50
2019-02-14T05:18:23.150Z,12.53
2019-02-14T05:20:51.404Z,9.68
2019-02-14T05:23:19.692Z,9.75
2019-02-14T05:25:47.942Z,32.17
2019-02-14T05:28:16.230Z,10.70
2019-02-14T05:30:44.551Z,8.25
2019-02-14T05:33:12.795Z,9.95
2019-02-14T05:35:41.061Z,13.05
2019-02-14T05:38:09.327Z,9.50
2019-02-14T05:40:37.583Z,8.20
2019-02-14T05:43:05.865Z,9.10
2019-02-14T05:45:34.111Z,9.10
2019-02-14T05:48:02.394Z,9.53
2019-02-14T05:50:30.646Z,9.68
2019-02-14T05:52:58.933Z,9.15
2019-02-14T05:55:27.185Z,9.30
2019-02-14T05:57:55.472Z,9.20
2019-02-14T06:00:23.821Z,8.00
2019-02-14T06:02:52.071Z,9.73
2019-02-14T06:05:20.392Z,9.28
2019-02-14T06:07:48.646Z,9.70
2019-02-14T06:10:16.906Z,9.73
2019-02-14T06:12:45.194Z,8.10
2019-02-14T06:15:13.812Z,8.18
2019-02-14T06:17:42.088Z,8.78
2019-02-14T06:20:13.324Z,9.23
2019-02-14T06:22:41.611Z,8.28
2019-02-14T06:25:11.011Z,8.83
2019-02-14T06:27:39.271Z,8.93
2019-02-14T06:30:10.401Z,9.45
2019-02-14T06:32:38.663Z,9.80
2019-02-14T06:35:08.521Z,9.60
2019-02-14T06:37:36.776Z,10.40
2019-02-14T06:40:08.079Z,11.75
2019-02-14T06:42:36.368Z,11.55
2019-02-14T06:45:07.076Z,14.15
2019-02-14T06:47:35.334Z,11.38
2019-02-14T06:50:03.613Z,11.22
2019-02-14T06:52:31.878Z,11.40
2019-02-14T06:55:00.286Z,10.80
2019-02-14T06:57:28.508Z,10.32
2019-02-14T06:59:56.755Z,9.65
2019-02-14T07:02:25.046Z,10.30
2019-02-14T07:04:53.301Z,13.40
2019-02-14T07:07:21.569Z,10.10
2019-02-14T07:09:49.849Z,9.48
2019-02-14T07:12:18.094Z,10.80
2019-02-14T07:14:46.381Z,8.78
2019-02-14T07:17:14.634Z,9.05
2019-02-14T07:19:42.913Z,9.60
2019-02-14T07:22:11.168Z,9.85
2019-02-14T07:24:39.470Z,8.95
2019-02-14T07:27:07.729Z,16.25
2019-02-14T07:29:35.992Z,11.08
2019-02-14T07:32:04.321Z,9.75
2019-02-14T07:34:32.577Z,9.03
2019-02-14T07:37:00.825Z,9.20
2019-02-14T07:39:29.116Z,10.03
2019-02-14T07:41:57.367Z,9.68
2019-02-14T07:44:25.686Z,9.45
2019-02-14T07:46:53.942Z,8.80
2019-02-14T07:49:22.188Z,8.75
2019-02-14T07:51:50.453Z,10.65
2019-02-14T07:54:18.726Z,10.65
2019-02-14T07:56:47.014Z,9.15
2019-02-14T07:59:15.269Z,9.63
2019-02-14T08:01:43.563Z,9.13
2019-02-14T08:04:11.815Z,9.48
2019-02-14T08:06:40.073Z,11.75
2019-02-14T08:09:08.355Z,9.88
2019-02-14T08:11:36.619Z,9.75
2019-02-14T08:14:04.913Z,10.88
2019-02-14T08:16:33.203Z,10.05
2019-02-14T08:19:01.470Z,9.23
2019-02-14T08:21:29.720Z,9.70
2019-02-14T08:23:58.009Z,10.68
2019-02-14T08:26:26.266Z,10.03
2019-02-14T08:28:54.547Z,12.78
2019-02-14T08:31:22.820Z,18.67
2019-02-14T08:33:51.173Z,15.10
2019-02-14T08:36:19.530Z,9.68
2019-02-14T08:38:47.818Z,10.68
2019-02-14T08:41:16.074Z,9.38
2019-02-14T08:43:44.338Z,9.45
2019-02-14T08:46:13.482Z,8.75
2019-02-14T08:48:41.752Z,10.13
2019-02-14T08:51:10.009Z,12.50
2019-02-14T08:53:38.294Z,12.33
2019-02-14T08:56:06.597Z,12.18
2019-02-14T08:58:34.847Z,9.70
2019-02-14T09:01:03.101Z,9.95
2019-02-14T09:03:31.383Z,9.83
2019-02-14T09:05:59.660Z,12.37
2019-02-14T09:08:27.917Z,9.95
2019-02-14T09:10:56.180Z,11.10
2019-02-14T09:13:24.455Z,13.60
2019-02-14T09:15:52.718Z,12.25
2019-02-14T09:18:21.007Z,10.88
2019-02-14T09:20:49.257Z,10.75
2019-02-14T09:23:17.531Z,10.72
2019-02-14T09:25:45.800Z,10.30
2019-02-14T09:28:14.052Z,10.25
2019-02-14T09:30:42.735Z,10.03
2019-02-14T09:33:11.062Z,11.33
2019-02-14T09:35:39.316Z,10.05
2019-02-14T09:38:07.611Z,11.00
2019-02-14T09:40:35.903Z,10.40
2019-02-14T09:43:04.176Z,12.28
2019-02-14T09:45:32.462Z,12.45
2019-02-14T09:48:00.770Z,10.80
2019-02-14T09:50:29.033Z,10.43
2019-02-14T09:52:57.296Z,10.63
2019-02-14T09:55:25.585Z,10.78
2019-02-14T09:57:53.856Z,15.58
2019-02-14T10:00:22.139Z,12.20
2019-02-14T10:02:50.439Z,11.20
2019-02-14T10:05:18.688Z,15.28
2019-02-14T10:07:46.983Z,24.05
2019-02-14T10:10:19.775Z,16.97
2019-02-14T10:12:48.079Z,14.35
2019-02-14T10:15:16.333Z,14.00
2019-02-14T10:17:44.599Z,14.83
2019-02-14T10:20:16.998Z,11.30
2019-02-14T10:22:45.243Z,23.85
2019-02-14T10:25:13.836Z,15.08
2019-02-14T10:27:42.315Z,18.77
2019-02-14T10:30:13.564Z,14.60
2019-02-14T10:32:41.818Z,12.98
2019-02-14T10:35:10.084Z,12.23
2019-02-14T10:37:38.372Z,12.55
2019-02-14T10:40:12.702Z,12.60
2019-02-14T10:42:40.968Z,13.32
2019-02-14T10:45:20.895Z,16.32
2019-02-14T10:47:49.198Z,12.82
2019-02-14T10:50:17.464Z,20.75
2019-02-14T10:52:45.721Z,14.58
2019-02-14T10:55:15.022Z,13.45
2019-02-14T10:57:43.392Z,14.07
2019-02-14T11:00:22.983Z,15.00
2019-02-14T11:02:51.375Z,12.65
2019-02-14T11:05:19.805Z,26.93
2019-02-14T11:07:48.068Z,15.68
2019-02-14T11:10:16.657Z,14.20
2019-02-14T11:12:44.950Z,16.48
2019-02-14T11:15:18.789Z,17.52
2019-02-14T11:17:48.946Z,17.30
2019-02-14T11:20:18.013Z,15.58
2019-02-14T11:22:48.669Z,16.23
2019-02-14T11:25:25.656Z,13.48
2019-02-14T11:27:53.956Z,20.70
2019-02-14T11:30:22.217Z,14.35
2019-02-14T11:32:50.471Z,11.95
2019-02-14T11:35:18.772Z,14.55
2019-02-14T11:37:47.055Z,14.65
2019-02-14T11:40:15.315Z,14.53
2019-02-14T11:42:43.599Z,14.18
2019-02-14T11:45:17.633Z,12.55
2019-02-14T11:47:45.894Z,15.32
2019-02-14T11:50:14.185Z,11.48
2019-02-14T11:52:42.444Z,12.10
2019-02-14T11:55:11.244Z,11.48
2019-02-14T11:57:39.541Z,13.58
2019-02-14T12:00:14.993Z,12.23
2019-02-14T12:02:43.287Z,12.80
2019-02-14T12:05:11.554Z,21.97
2019-02-14T12:07:39.845Z,11.97
2019-02-14T12:10:13.409Z,20.60
2019-02-14T12:12:41.246Z,12.50
2019-02-14T12:15:10.912Z,13.32
2019-02-14T12:17:39.170Z,19.25
2019-02-14T12:20:12.356Z,16.20
2019-02-14T12:22:46.267Z,24.10
2019-02-14T12:25:15.720Z,15.58
2019-02-14T12:27:44.042Z,21.17
2019-02-14T12:30:14.229Z,11.85
2019-02-14T12:32:42.479Z,11.90
2019-02-14T12:35:10.776Z,11.75
2019-02-14T12:37:39.032Z,13.20
2019-02-14T12:40:10.069Z,16.42
2019-02-14T12:42:38.315Z,12.82
2019-02-14T12:45:20.236Z,10.65
2019-02-14T12:47:42.355Z,12.45
2019-02-14T12:50:10.617Z,13.78
2019-02-14T12:52:38.904Z,13.68
2019-02-14T12:55:07.160Z,13.60
2019-02-14T12:57:35.450Z,28.87
2019-02-14T13:00:05.374Z,20.92
2019-02-14T13:02:33.598Z,11.63
2019-02-14T13:05:01.852Z,14.13
2019-02-14T13:07:30.162Z,16.52
2019-02-14T13:09:58.422Z,11.88
2019-02-14T13:12:26.694Z,13.53
2019-02-14T13:14:55.005Z,10.98
2019-02-14T13:17:23.264Z,11.93
2019-02-14T13:19:51.527Z,17.42
2019-02-14T13:22:19.806Z,10.88
2019-02-14T13:24:48.106Z,13.45
2019-02-14T13:27:16.369Z,12.35
2019-02-14T13:29:44.645Z,13.32
2019-02-14T13:32:13.712Z,13.05
2019-02-14T13:34:42.087Z,15.98
2019-02-14T13:37:10.355Z,11.18
2019-02-14T13:39:38.642Z,14.65
2019-02-14T13:42:06.890Z,15.00
2019-02-14T13:44:35.189Z,13.15
2019-02-14T13:47:03.456Z,12.43
2019-02-14T13:49:32.725Z,11.55
2019-02-14T13:52:01.189Z,20.30
2019-02-14T13:54:29.471Z,17.27
2019-02-14T13:56:57.742Z,12.75
2019-02-14T13:59:26.033Z,19.90
2019-02-14T14:01:54.316Z,13.70
2019-02-14T14:04:22.603Z,14.43
2019-02-14T14:06:50.891Z,13.95
2019-02-14T14:09:19.158Z,13.53
2019-02-14T14:11:47.425Z,12.82
2019-02-14T14:14:15.714Z,13.38
2019-02-14T14:16:43.981Z,14.60
2019-02-14T14:19:12.283Z,17.55
2019-02-14T14:21:40.551Z,15.88
2019-02-14T14:24:08.821Z,12.18
2019-02-14T14:26:37.112Z,23.20
2019-02-14T14:29:05.398Z,45.58
2019-02-14T14:31:33.688Z,22.05
2019-02-14T14:34:01.956Z,20.57
2019-02-14T14:36:30.260Z,24.20
2019-02-14T14:38:58.582Z,18.85
2019-02-14T14:41:26.851Z,16.87
2019-02-14T14:43:59.516Z,12.98
2019-02-14T14:46:29.365Z,25.43
2019-02-14T14:48:57.676Z,13.83
2019-02-14T14:51:25.938Z,37.25
2019-02-14T14:53:54.205Z,31.27
2019-02-14T14:56:22.480Z,17.87
2019-02-14T14:58:50.736Z,14.33
2019-02-14T15:01:19.031Z,18.30
2019-02-14T15:03:47.320Z,14.80
2019-02-14T15:06:15.583Z,20.45
2019-02-14T15:08:43.921Z,21.80
2019-02-14T15:11:12.226Z,20.85
2019-02-14T15:13:40.493Z,30.48
2019-02-14T15:16:08.747Z,18.82
2019-02-14T15:18:37.042Z,17.82
2019-02-14T15:21:05.352Z,17.17
2019-02-14T15:23:33.597Z,17.12
2019-02-14T15:26:01.865Z,13.55
2019-02-14T15:28:30.189Z,13.78
2019-02-14T15:30:58.480Z,16.52
2019-02-14T15:33:26.747Z,27.82
2019-02-14T15:35:55.033Z,16.45
2019-02-14T15:38:23.296Z,19.82
2019-02-14T15:40:51.562Z,15.98
2019-02-14T15:43:19.821Z,21.80
2019-02-14T15:45:48.115Z,17.95
2019-02-14T15:48:16.386Z,21.50
2019-02-14T15:50:44.666Z,38.73
2019-02-14T15:53:12.930Z,26.07
2019-02-14T15:55:43.655Z,37.13
2019-02-14T15:58:11.390Z,35.28
2019-02-14T16:00:39.677Z,22.22
2019-02-14T16:03:07.953Z,25.45
2019-02-14T16:05:38.062Z,19.37
2019-02-14T16:08:06.230Z,24.45
2019-02-14T16:10:34.532Z,19.42
2019-02-14T16:13:02.788Z,15.38
2019-02-14T16:15:33.632Z,27.25
2019-02-14T16:18:01.635Z,13.75
2019-02-14T16:20:29.999Z,15.43
2019-02-14T16:22:58.278Z,18.00
2019-02-14T16:25:28.225Z,18.95
2019-02-14T16:27:56.604Z,30.75
2019-02-14T16:30:24.866Z,35.50
2019-02-14T16:32:53.175Z,15.53
2019-02-14T16:35:21.502Z,12.70
2019-02-14T16:37:50.533Z,17.90
2019-02-14T16:40:27.562Z,15.70
2019-02-14T16:42:49.016Z,17.50
2019-02-14T16:45:17.306Z,23.42
2019-02-14T16:47:45.569Z,14.60
2019-02-14T16:50:13.844Z,18.50
2019-02-14T16:52:42.138Z,27.52
2019-02-14T16:55:10.425Z,27.60
2019-02-14T16:57:38.691Z,35.55
2019-02-14T17:00:10.385Z,36.60
2019-02-14T17:02:38.691Z,21.85
2019-02-14T17:05:06.963Z,20.25
2019-02-14T17:07:35.221Z,34.78
2019-02-14T17:10:03.848Z,44.18
2019-02-14T17:12:32.110Z,35.35
2019-02-14T17:15:00.440Z,28.47
2019-02-14T17:17:28.716Z,20.00
2019-02-14T17:19:57.004Z,23.75
2019-02-14T17:22:25.294Z,24.23
2019-02-14T17:24:53.549Z,21.17
2019-02-14T17:27:21.801Z,18.15
2019-02-14T17:29:50.111Z,68.37
2019-02-14T17:32:18.376Z,21.95
2019-02-14T17:34:46.661Z,29.07
2019-02-14T17:37:14.930Z,21.30
2019-02-14T17:39:43.224Z,23.35
2019-02-14T17:42:11.484Z,35.20
2019-02-14T17:44:39.777Z,17.10
2019-02-14T17:47:08.125Z,27.13
2019-02-14T17:49:36.414Z,20.25
2019-02-14T17:52:04.671Z,26.45
2019-02-14T17:54:32.965Z,62.05
2019-02-14T17:57:01.224Z,24.05
2019-02-14T17:59:29.498Z,15.05
2019-02-14T18:01:57.760Z,20.23
2019-02-14T18:04:26.037Z,12.73
2019-02-14T18:06:54.318Z,19.55
2019-02-14T18:09:22.607Z,27.25
2019-02-14T18:11:50.866Z,20.62
2019-02-14T18:14:19.183Z,13.70
2019-02-14T18:16:47.443Z,15.80
2019-02-14T18:19:15.706Z,23.30
2019-02-14T18:21:44.042Z,30.15
2019-02-14T18:24:12.298Z,21.93
2019-02-14T18:26:52.536Z,32.30
2019-02-14T18:29:28.381Z,21.42
2019-02-14T18:31:56.652Z,19.57
2019-02-14T18:34:24.909Z,20.68
2019-02-14T18:36:53.203Z,14.68
2019-02-14T18:39:21.478Z,18.95
2019-02-14T18:41:49.799Z,30.00
2019-02-14T18:44:18.525Z,25.60
2019-02-14T18:46:46.782Z,29.00
2019-02-14T18:49:15.081Z,15.53
2019-02-14T18:51:43.347Z,31.77
2019-02-14T18:54:11.611Z,33.05
2019-02-14T18:56:39.890Z,32.95
2019-02-14T18:59:08.172Z,23.77
2019-02-14T19:01:36.434Z,28.77
2019-02-14T19:04:04.753Z,15.88
2019-02-14T19:06:33.015Z,14.20
2019-02-14T19:09:01.451Z,39.27
2019-02-14T19:11:29.875Z,16.73
2019-02-14T19:13:58.420Z,14.83
2019-02-14T19:16:26.679Z,11.25
2019-02-14T19:18:54.938Z,11.33
2019-02-14T19:21:23.213Z,11.90
2019-02-14T19:23:51.491Z,15.48
2019-02-14T19:26:19.788Z,21.23
2019-02-14T19:28:48.047Z,54.53
2019-02-14T19:31:16.364Z,15.75
2019-02-14T19:33:44.593Z,14.33
2019-02-14T19:36:12.881Z,18.67
2019-02-14T19:38:41.146Z,13.48
2019-02-14T19:41:09.433Z,13.85
2019-02-14T19:43:37.740Z,32.53
2019-02-14T19:46:06.003Z,17.02
2019-02-14T19:48:34.269Z,14.78
2019-02-14T19:51:02.842Z,20.25
2019-02-14T19:53:31.100Z,23.62
2019-02-14T19:55:59.373Z,45.03
2019-02-14T19:58:27.669Z,42.85
2019-02-14T20:00:55.931Z,16.75
2019-02-14T20:03:24.237Z,43.45
2019-02-14T20:05:52.504Z,35.43
2019-02-14T20:08:20.771Z,24.18
2019-02-14T20:10:49.469Z,38.58
2019-02-14T20:13:17.708Z,23.05
2019-02-14T20:15:45.972Z,12.53
2019-02-14T20:18:14.297Z,14.07
2019-02-14T20:20:42.548Z,27.85
2019-02-14T20:23:10.809Z,23.57
2019-02-14T20:25:39.113Z,15.53
2019-02-14T20:28:07.446Z,19.92
2019-02-14T20:30:35.705Z,13.80
2019-02-14T20:33:05.000Z,13.98
2019-02-14T20:35:33.458Z,17.55
2019-02-14T20:38:01.762Z,24.27
2019-02-14T20:40:31.969Z,20.05
2019-02-14T20:43:00.011Z,21.57
2019-02-14T20:45:28.277Z,19.73
2019-02-14T20:47:57.363Z,16.75
2019-02-14T20:50:25.710Z,23.75
2019-02-14T20:52:53.980Z,19.42
2019-02-14T20:55:25.150Z,21.62
2019-02-14T20:57:53.587Z,21.95
2019-02-14T21:00:35.495Z,24.07
2019-02-14T21:03:03.754Z,22.00
2019-02-14T21:05:32.042Z,25.85
2019-02-14T21:08:00.312Z,15.58
2019-02-14T21:10:28.653Z,19.27
2019-02-14T21:12:56.931Z,21.77
2019-02-14T21:15:25.197Z,32.03
2019-02-14T21:17:53.477Z,27.15
2019-02-14T21:20:21.762Z,30.45
2019-02-14T21:22:50.021Z,27.07
2019-02-14T21:25:22.455Z,16.90
2019-02-14T21:27:48.370Z,13.75
2019-02-14T21:30:18.111Z,13.75
2019-02-14T21:32:46.483Z,13.60
2019-02-14T21:35:15.109Z,21.42
2019-02-14T21:37:43.425Z,20.20
2019-02-14T21:40:15.745Z,16.00
2019-02-14T21:42:44.043Z,26.65
2019-02-14T21:45:14.469Z,31.77
2019-02-14T21:47:42.741Z,24.27
2019-02-14T21:50:12.050Z,28.77
2019-02-14T21:52:40.441Z,21.62
2019-02-14T21:55:10.637Z,19.87
2019-02-14T21:57:38.935Z,17.27
2019-02-14T22:00:14.111Z,15.32
2019-02-14T22:02:42.908Z,16.95
2019-02-14T22:05:11.540Z,17.67
2019-02-14T22:07:39.817Z,17.98
2019-02-14T22:10:10.512Z,18.82
2019-02-14T22:12:41.836Z,21.87
2019-02-14T22:15:14.475Z,23.55
2019-02-14T22:17:42.756Z,26.48
2019-02-14T22:20:11.049Z,20.77
2019-02-14T22:22:39.340Z,19.25
2019-02-14T22:25:10.038Z,20.75
2019-02-14T22:27:38.519Z,20.27
2019-02-14T22:30:11.055Z,18.20
2019-02-14T22:32:39.344Z,21.37
2019-02-14T22:35:07.643Z,21.95
2019-02-14T22:37:35.904Z,20.10
2019-02-14T22:40:06.046Z,18.90
2019-02-14T22:42:34.304Z,18.12
2019-02-14T22:45:02.565Z,19.57
2019-02-14T22:47:30.858Z,17.67
2019-02-14T22:49:59.161Z,17.50
2019-02-14T22:52:27.470Z,16.95
2019-02-14T22:54:55.743Z,18.23
2019-02-14T22:57:24.073Z,16.10
2019-02-14T22:59:52.361Z,16.40
2019-02-14T23:02:20.707Z,13.58
2019-02-14T23:04:49.004Z,15.83
2019-02-14T23:07:17.265Z,12.68
2019-02-14T23:09:45.618Z,14.53
2019-02-14T23:12:17.254Z,19.87
2019-02-14T23:14:45.565Z,18.37
2019-02-14T23:17:13.873Z,24.57
2019-02-14T23:19:42.136Z,19.95
2019-02-14T23:22:10.389Z,14.15
2019-02-14T23:24:38.722Z,14.23
2019-02-14T23:27:07.053Z,13.55
2019-02-14T23:29:35.313Z,13.68
2019-02-14T23:32:03.752Z,15.10
2019-02-14T23:34:32.007Z,13.98
2019-02-14T23:37:00.277Z,18.70
2019-02-14T23:39:28.568Z,15.80
2019-02-14T23:41:56.826Z,16.30
2019-02-14T23:44:25.124Z,24.00
2019-02-14T23:46:53.374Z,16.73
2019-02-14T23:49:21.701Z,13.15
2019-02-14T23:51:49.968Z,13.08
2019-02-14T23:54:18.301Z,14.30
2019-02-14T23:56:46.598Z,14.58
2019-02-14T23:59:14.855Z,13.60
